Terminal Aerodrome Forecast
Issued by NWS Newport/Morehead City, NC

Home | Current Version | Previous Version | Graphics & Text | Print | Product List | Glossary On
Versions: 1 2 3 4 5 6 7 8 9 10 11 12 13
878
FTUS42 KMHX 181722
TAFEWN
TAF
KEWN 181722Z 1818/1918 18010G18KT 5SM -SHRA BR BKN025
     FM182300 16009KT P6SM VCSH BKN025
     FM190800 16008KT 5SM -SHRA SCT005 OVC020
     FM191200 17010G17KT 3SM +SHRA SCT005 OVC020=

USA.gov is the U.S. government's official web portal to all federal, state and local government web resources and services.